Time;durP1;ratioP1;P1;durP2;ratioP2;P2;SDS_P1;SDS_P2;PMS_P1;PMS_P2;Temp;Humidity;BMP_temperature;BMP_pressure;BME280_temperature;BME280_humidity;BME280_pressure;Samples;Min_cycle;Max_cycle;Signal;HPM_P1;HPM_P2
2021/05/29 00:00:12;;;;;;;5.30;3.50;;;;;;;7.95;79.93;101682.78;5062648;28;20048;-54
2021/05/29 00:02:37;;;;;;;5.57;3.38;;;;;;;7.90;79.72;101684.38;5055898;28;20039;-54
2021/05/29 00:05:06;;;;;;;5.85;3.50;;;;;;;7.77;80.73;101691.03;5063671;28;20466;-50
2021/05/29 00:07:32;;;;;;;5.33;3.60;;;;;;;7.75;80.78;101690.09;5046726;28;20446;-53
2021/05/29 00:09:59;;;;;;;5.50;3.40;;;;;;;8.17;78.46;101685.84;5064050;28;20075;-54
2021/05/29 00:12:24;;;;;;;4.68;3.38;;;;;;;7.81;79.31;101690.28;5082386;28;20040;-50
2021/05/29 00:14:50;;;;;;;5.72;3.40;;;;;;;7.80;80.18;101690.25;5082929;28;20605;-51
2021/05/29 00:17:18;;;;;;;5.25;3.60;;;;;;;7.77;79.53;101692.78;5044521;28;20034;-54
2021/05/29 00:19:44;;;;;;;5.32;3.38;;;;;;;7.74;80.31;101685.78;5082209;28;20051;-51
2021/05/29 00:22:10;;;;;;;7.32;3.45;;;;;;;7.66;80.57;101689.91;5051589;28;20071;-52
2021/05/29 00:24:35;;;;;;;5.35;3.78;;;;;;;7.50;81.21;101691.25;5061704;28;20040;-51
2021/05/29 00:27:01;;;;;;;5.50;3.40;;;;;;;7.50;81.16;101691.25;5064325;28;20163;-54
2021/05/29 00:29:27;;;;;;;5.53;3.40;;;;;;;7.46;81.25;101694.63;5086035;28;20032;-53
2021/05/29 00:31:53;;;;;;;5.75;3.40;;;;;;;7.45;80.70;101692.88;5082975;28;20135;-51
2021/05/29 00:34:18;;;;;;;7.78;3.70;;;;;;;7.37;81.08;101690.09;5081320;28;20046;-51
2021/05/29 00:36:44;;;;;;;5.05;3.50;;;;;;;7.34;81.91;101687.41;5082165;28;20047;-52
2021/05/29 00:39:10;;;;;;;6.43;3.85;;;;;;;7.28;82.05;101689.84;5080102;28;20065;-51
2021/05/29 00:41:35;;;;;;;5.85;3.15;;;;;;;7.47;81.16;101692.06;5080874;28;20444;-50
2021/05/29 00:44:02;;;;;;;5.65;3.70;;;;;;;7.50;80.27;101694.75;5062689;28;20043;-51
2021/05/29 00:46:28;;;;;;;7.85;3.60;;;;;;;7.35;81.21;101694.34;5079926;28;20043;-53
2021/05/29 00:48:53;;;;;;;9.68;3.55;;;;;;;7.29;81.10;101692.47;5082955;28;20399;-49
2021/05/29 00:51:19;;;;;;;6.40;3.30;;;;;;;7.33;81.10;101694.31;5078375;28;20144;-52
2021/05/29 00:53:46;;;;;;;6.68;3.50;;;;;;;7.32;80.80;101689.97;5081386;28;20028;-54
2021/05/29 00:56:13;;;;;;;5.40;3.40;;;;;;;7.34;81.00;101690.00;5065971;28;20510;-50
2021/05/29 00:58:41;;;;;;;5.50;3.83;;;;;;;7.32;81.31;101686.47;5078882;28;20142;-51
2021/05/29 01:01:07;;;;;;;6.68;3.90;;;;;;;7.27;81.20;101688.06;5080191;28;20036;-50
2021/05/29 01:03:37;;;;;;;5.30;3.75;;;;;;;7.24;81.48;101688.91;5079999;28;20147;-52
2021/05/29 01:06:05;;;;;;;6.20;3.80;;;;;;;7.14;81.46;101685.19;5075102;28;20097;-52
2021/05/29 01:08:31;;;;;;;6.20;3.83;;;;;;;7.09;81.43;101686.78;5036670;28;20428;-54
2021/05/29 01:10:57;;;;;;;6.55;3.67;;;;;;;7.14;81.59;101681.69;5083901;28;20028;-54
2021/05/29 01:13:29;;;;;;;8.98;3.90;;;;;;;6.97;82.06;101696.84;5063304;27;20032;-51
2021/05/29 01:16:00;;;;;;;6.35;3.58;;;;;;;7.22;80.97;101679.31;5066770;28;20048;-50
2021/05/29 01:18:26;;;;;;;6.07;3.88;;;;;;;7.26;81.03;101697.59;5057353;28;20056;-51
2021/05/29 01:20:52;;;;;;;7.00;3.85;;;;;;;6.97;82.40;101683.88;5041824;28;20401;-51
2021/05/29 01:23:17;;;;;;;5.90;4.00;;;;;;;7.07;82.23;101685.84;5061018;28;20124;-51
2021/05/29 01:25:46;;;;;;;6.18;3.75;;;;;;;7.13;81.54;101687.72;5060729;28;20129;-54
2021/05/29 01:28:17;;;;;;;;;;;;;;;6.91;82.28;101688.88;5050707;28;20036;-51
2021/05/29 01:30:47;;;;;;;4.78;3.28;;;;;;;7.06;82.16;101688.41;5067233;28;19989;-51
2021/05/29 01:33:22;;;;;;;6.07;3.70;;;;;;;7.01;81.28;101684.84;5057047;28;20040;-50
2021/05/29 01:35:50;;;;;;;6.00;3.83;;;;;;;6.92;82.86;101683.75;5064419;28;20461;-50
2021/05/29 01:38:18;;;;;;;8.13;3.80;;;;;;;6.92;81.81;101678.56;5068764;28;20040;-52
2021/05/29 01:40:44;;;;;;;9.97;4.43;;;;;;;7.16;81.38;101680.91;5061335;28;20075;-51
2021/05/29 01:43:11;;;;;;;6.18;3.55;;;;;;;6.88;82.46;101675.81;5035715;28;20286;-49
2021/05/29 01:45:38;;;;;;;6.82;3.75;;;;;;;6.82;82.76;101672.19;5055824;28;20041;-53
2021/05/29 01:48:05;;;;;;;5.57;3.80;;;;;;;7.15;80.95;101673.94;5039675;28;20041;-53
2021/05/29 01:50:32;;;;;;;7.32;4.00;;;;;;;6.74;82.73;101668.53;5077413;28;20133;-50
2021/05/29 01:53:03;;;;;;;6.95;3.60;;;;;;;6.68;83.52;101670.09;5080657;28;20107;-51
2021/05/29 01:55:31;;;;;;;7.05;3.70;;;;;;;6.57;83.45;101678.44;5064563;28;20066;-52
2021/05/29 01:57:58;;;;;;;5.50;3.65;;;;;;;6.71;82.67;101671.03;5059172;28;20037;-50
2021/05/29 02:00:26;;;;;;;7.75;3.70;;;;;;;6.76;82.47;101668.56;5059696;28;20040;-53
2021/05/29 02:02:54;;;;;;;5.68;3.70;;;;;;;6.68;82.13;101670.97;5059801;28;20045;-51
2021/05/29 02:05:21;;;;;;;4.40;3.25;;;;;;;6.79;81.57;101674.72;5061658;28;20093;-50
2021/05/29 02:07:48;;;;;;;7.22;4.18;;;;;;;6.63;83.13;101677.72;5055308;28;20052;-52
2021/05/29 02:10:17;;;;;;;5.68;3.92;;;;;;;6.57;82.88;101674.97;5059561;28;20048;-51
2021/05/29 02:12:46;;;;;;;5.45;3.65;;;;;;;6.65;82.71;101679.53;5040455;28;20036;-54
2021/05/29 02:15:13;;;;;;;;;;;;;;;6.41;83.64;101682.34;5056034;28;20074;-54
2021/05/29 02:17:40;;;;;;;5.00;3.58;;;;;;;6.73;81.26;101682.38;5081401;28;20019;-50
2021/05/29 02:20:07;;;;;;;6.50;3.72;;;;;;;6.60;82.34;101683.72;5080833;28;20024;-50
2021/05/29 02:22:33;;;;;;;5.35;3.95;;;;;;;6.65;82.47;101686.47;5061792;28;20455;-51
2021/05/29 02:24:59;;;;;;;7.47;4.20;;;;;;;6.48;82.98;101689.47;5071382;28;20036;-51
2021/05/29 02:27:24;;;;;;;6.10;4.00;;;;;;;6.32;83.76;101689.00;5079578;28;20051;-53
2021/05/29 02:29:50;;;;;;;5.45;3.55;;;;;;;6.48;82.75;101693.81;5078981;28;20044;-50
2021/05/29 02:32:16;;;;;;;5.32;3.17;;;;;;;6.54;82.39;101698.28;5083433;28;20032;-54
2021/05/29 02:34:42;;;;;;;6.70;3.90;;;;;;;6.47;82.52;101694.63;5079716;28;20266;-52
2021/05/29 02:37:08;;;;;;;5.75;3.90;;;;;;;6.34;83.21;101696.00;5082426;28;20031;-52
2021/05/29 02:39:33;;;;;;;5.25;3.50;;;;;;;6.48;82.40;101696.41;5078390;28;20461;-51
2021/05/29 02:41:59;;;;;;;6.38;3.55;;;;;;;6.37;82.28;101690.88;5080967;28;20036;-50
2021/05/29 02:44:25;;;;;;;7.78;3.88;;;;;;;6.40;82.33;101690.97;5081585;28;20031;-52
2021/05/29 02:46:52;;;;;;;6.32;3.95;;;;;;;6.26;83.07;101692.28;5080638;28;20055;-51
2021/05/29 02:49:17;;;;;;;5.88;3.58;;;;;;;6.26;83.22;101689.69;5082434;28;20046;-51
2021/05/29 02:51:43;;;;;;;6.07;3.53;;;;;;;6.27;83.36;101694.03;5080349;28;20036;-51
2021/05/29 02:54:09;;;;;;;7.93;4.05;;;;;;;6.43;82.63;101690.19;5080566;28;20496;-50
2021/05/29 02:56:35;;;;;;;5.32;3.67;;;;;;;6.21;83.56;101693.88;5066687;28;20411;-51
2021/05/29 02:59:01;;;;;;;5.80;3.70;;;;;;;6.48;82.06;101699.88;5067365;28;20561;-51
2021/05/29 03:01:27;;;;;;;5.70;3.60;;;;;;;6.62;80.49;101691.59;5065524;28;20036;-51
2021/05/29 03:03:53;;;;;;;5.80;3.63;;;;;;;6.24;82.22;101699.16;5057650;28;20520;-51
2021/05/29 03:06:19;;;;;;;5.85;4.00;;;;;;;6.19;83.24;101705.91;5061710;28;20307;-50
2021/05/29 03:08:44;;;;;;;6.53;3.90;;;;;;;5.87;84.67;101698.88;5060648;28;20043;-53
2021/05/29 03:11:11;;;;;;;5.22;3.35;;;;;;;6.10;83.34;101707.38;5046522;28;21319;-49
2021/05/29 03:13:37;;;;;;;6.30;3.78;;;;;;;6.07;83.46;101696.91;5054619;28;21480;-53
2021/05/29 03:16:03;;;;;;;5.72;3.80;;;;;;;6.24;82.17;101704.34;5068786;28;20043;-51
2021/05/29 03:18:30;;;;;;;5.55;3.80;;;;;;;6.08;82.99;101703.00;5047986;28;20038;-50
2021/05/29 03:20:59;;;;;;;5.75;3.55;;;;;;;5.93;84.22;101696.47;5079361;28;20048;-50
2021/05/29 03:23:26;;;;;;;7.22;4.03;;;;;;;6.04;84.24;101709.81;5064325;28;20507;-53
2021/05/29 03:25:52;;;;;;;5.63;3.50;;;;;;;6.02;83.44;101706.28;5074716;28;20052;-52
2021/05/29 03:28:18;;;;;;;5.82;3.70;;;;;;;6.07;83.65;101707.31;5082384;28;20109;-50
2021/05/29 03:30:44;;;;;;;6.45;3.85;;;;;;;5.80;84.37;101708.19;5067035;27;20040;-53
2021/05/29 03:33:12;;;;;;;5.85;3.95;;;;;;;5.99;84.08;101713.09;5057001;28;20117;-51
2021/05/29 03:35:39;;;;;;;7.03;4.60;;;;;;;5.95;83.77;101717.28;5060841;28;20085;-51
2021/05/29 03:38:05;;;;;;;5.13;3.58;;;;;;;6.13;83.00;101720.50;5066811;28;20496;-50
2021/05/29 03:40:31;;;;;;;6.70;3.78;;;;;;;6.01;83.03;101727.91;5079184;28;20246;-51
2021/05/29 03:42:56;;;;;;;7.85;4.05;;;;;;;6.05;83.70;101726.25;5070569;27;20075;-50
2021/05/29 03:45:23;;;;;;;5.95;3.60;;;;;;;5.90;83.62;101724.94;5030135;28;20431;-53
2021/05/29 03:47:49;;;;;;;5.90;3.90;;;;;;;5.84;85.22;101731.63;5063193;28;20114;-50
2021/05/29 03:50:23;;;;;;;6.35;4.10;;;;;;;5.86;84.37;101727.38;5062325;28;20032;-49
2021/05/29 03:52:49;;;;;;;5.88;3.95;;;;;;;5.65;85.35;101731.06;5082937;28;20216;-50
2021/05/29 03:55:17;;;;;;;6.22;4.15;;;;;;;5.78;84.76;101735.78;5047123;28;20070;-54
2021/05/29 03:57:44;;;;;;;6.95;4.13;;;;;;;5.78;84.96;101740.97;5074595;28;20193;-51
2021/05/29 04:00:11;;;;;;;5.85;4.32;;;;;;;5.74;84.65;101741.72;5060921;28;20071;-50
2021/05/29 04:02:42;;;;;;;8.07;4.30;;;;;;;5.71;85.29;101738.16;5058833;27;20038;-50
2021/05/29 04:05:08;;;;;;;6.80;4.30;;;;;;;5.76;84.90;101737.47;5064823;28;20325;-51
2021/05/29 04:07:34;;;;;;;6.78;4.70;;;;;;;5.82;84.24;101738.50;5066538;28;20136;-51
2021/05/29 04:10:00;;;;;;;6.38;3.95;;;;;;;5.96;83.77;101739.81;5062885;28;20580;-51
2021/05/29 04:12:26;;;;;;;6.32;4.40;;;;;;;5.95;83.82;101733.75;5060032;27;20037;-51
2021/05/29 04:14:52;;;;;;;6.53;4.78;;;;;;;5.73;85.34;101734.78;5035123;28;20036;-50
2021/05/29 04:17:20;;;;;;;6.33;4.40;;;;;;;5.76;85.61;101740.06;5073703;28;20028;-51
2021/05/29 04:19:45;;;;;;;6.15;4.00;;;;;;;5.92;85.50;101735.34;5089776;28;20058;-50
2021/05/29 04:22:11;;;;;;;6.20;4.35;;;;;;;5.95;85.49;101743.22;5092344;28;20122;-49
2021/05/29 04:24:37;;;;;;;5.35;3.85;;;;;;;5.96;84.56;101742.41;5082045;28;20044;-51
2021/05/29 04:27:04;;;;;;;7.57;4.22;;;;;;;6.10;83.96;101740.28;5069172;28;20059;-50
2021/05/29 04:29:29;;;;;;;6.40;4.00;;;;;;;6.27;82.91;101741.69;5067921;28;20043;-51
2021/05/29 04:31:55;;;;;;;5.25;3.75;;;;;;;6.28;83.21;101739.94;5070275;28;20400;-51
2021/05/29 04:34:23;;;;;;;7.18;4.88;;;;;;;6.36;83.34;101746.25;5071159;28;20161;-53
2021/05/29 04:36:49;;;;;;;9.23;4.00;;;;;;;6.22;84.22;101745.84;5075003;28;20396;-51
2021/05/29 04:39:15;;;;;;;6.20;4.20;;;;;;;6.20;83.82;101750.09;5074822;28;20044;-52
2021/05/29 04:41:40;;;;;;;6.47;3.78;;;;;;;6.41;83.38;101747.28;5086167;28;20039;-52
2021/05/29 04:44:06;;;;;;;6.55;4.10;;;;;;;6.42;83.43;101746.44;5048396;28;20174;-55
2021/05/29 04:46:38;;;;;;;7.22;4.72;;;;;;;6.33;85.95;101750.47;5079812;28;20400;-50
2021/05/29 04:49:04;;;;;;;7.50;4.15;;;;;;;6.29;86.35;101749.50;5085972;28;20028;-51
2021/05/29 04:51:30;;;;;;;7.30;4.07;;;;;;;6.43;84.13;101750.78;5055070;28;20063;-51
2021/05/29 04:53:55;;;;;;;7.40;4.85;;;;;;;6.40;85.75;101752.44;5089681;27;20183;-50
2021/05/29 04:56:21;;;;;;;7.47;4.63;;;;;;;6.41;85.65;101755.06;5095024;28;20032;-50
2021/05/29 04:58:47;;;;;;;6.22;4.43;;;;;;;6.47;84.67;101756.97;5072506;28;20077;-51
2021/05/29 05:01:13;;;;;;;6.68;4.35;;;;;;;6.53;84.73;101766.66;5074380;28;20051;-52
2021/05/29 05:03:40;;;;;;;6.80;4.40;;;;;;;6.60;84.37;101766.00;5089245;28;20112;-51
2021/05/29 05:06:06;;;;;;;7.78;4.78;;;;;;;6.62;85.31;101770.41;5073156;28;20044;-51
2021/05/29 05:08:38;;;;;;;5.95;4.20;;;;;;;6.76;82.84;101765.59;5072455;28;20037;-51
2021/05/29 05:11:03;;;;;;;7.72;4.30;;;;;;;6.87;83.49;101762.41;5074119;28;20324;-50
2021/05/29 05:13:29;;;;;;;6.35;4.10;;;;;;;6.96;83.56;101760.97;5093069;28;20074;-52
2021/05/29 05:15:55;;;;;;;6.57;4.85;;;;;;;6.88;85.96;101765.09;5069874;28;20040;-52
2021/05/29 05:18:23;;;;;;;7.57;4.32;;;;;;;6.98;83.96;101772.28;5055649;28;20036;-52
2021/05/29 05:20:49;;;;;;;6.95;4.80;;;;;;;7.06;83.80;101763.81;5071566;28;20038;-51
2021/05/29 05:23:18;;;;;;;5.78;3.83;;;;;;;7.09;82.63;101769.09;5053945;28;20043;-53
2021/05/29 05:25:43;;;;;;;6.22;4.13;;;;;;;7.17;81.78;101772.78;5085269;28;20088;-54
2021/05/29 05:28:09;;;;;;;6.68;4.57;;;;;;;7.25;84.39;101773.00;5087843;28;20483;-52
2021/05/29 05:30:35;;;;;;;7.63;4.82;;;;;;;7.28;84.26;101780.88;5080574;28;20048;-51
2021/05/29 05:33:04;;;;;;;6.90;4.10;;;;;;;7.39;78.41;101781.16;5083407;28;20491;-55
2021/05/29 05:35:30;;;;;;;7.68;4.07;;;;;;;7.50;80.88;101779.72;5069531;28;20044;-50
2021/05/29 05:37:56;;;;;;;7.53;4.40;;;;;;;7.58;84.49;101778.19;5080646;28;20322;-54
2021/05/29 05:40:22;;;;;;;6.57;5.13;;;;;;;7.61;84.80;101785.22;5083913;28;20032;-53
2021/05/29 05:42:48;;;;;;;6.57;4.25;;;;;;;7.71;84.37;101789.78;5045533;28;20056;-52
2021/05/29 05:45:15;;;;;;;6.63;4.32;;;;;;;7.80;84.69;101784.81;5082966;28;20106;-52
2021/05/29 05:47:44;;;;;;;7.35;4.40;;;;;;;7.90;84.06;101790.25;5056546;28;20031;-53
2021/05/29 05:50:10;;;;;;;7.30;4.30;;;;;;;8.00;85.47;101787.03;5058165;28;20039;-53
2021/05/29 05:52:38;;;;;;;6.15;4.45;;;;;;;8.06;85.12;101796.69;5064528;28;20055;-52
2021/05/29 05:55:06;;;;;;;7.18;4.85;;;;;;;8.14;84.27;101798.66;5073848;28;20047;-52
2021/05/29 05:57:34;;;;;;;7.25;5.00;;;;;;;8.28;84.70;101798.09;5064358;28;20110;-50
2021/05/29 06:00:01;;;;;;;;;;;;;;;8.37;84.46;101798.31;5084644;28;20051;-51
2021/05/29 06:02:29;;;;;;;6.82;4.95;;;;;;;8.48;84.08;101802.06;5080566;28;20195;-51
2021/05/29 06:04:55;;;;;;;7.55;4.22;;;;;;;8.58;81.43;101802.25;5043293;28;20046;-50
2021/05/29 06:07:21;;;;;;;6.85;4.28;;;;;;;8.68;80.66;101804.22;5076409;28;20514;-50
2021/05/29 06:09:46;;;;;;;6.00;4.18;;;;;;;8.80;81.64;101804.47;5075064;28;20051;-51
2021/05/29 06:12:12;;;;;;;5.40;3.72;;;;;;;8.89;80.10;101800.28;5060514;28;20068;-50
2021/05/29 06:20:12;;;;;;;7.55;4.03;;;;;;;9.27;80.27;101802.78;5066291;28;20547;-53
2021/05/29 06:22:40;;;;;;;6.55;4.47;;;;;;;9.48;81.26;101803.16;5056008;28;20050;-53
2021/05/29 06:25:08;;;;;;;5.35;4.10;;;;;;;9.60;80.55;101810.34;5056321;28;20048;-52
2021/05/29 06:27:34;;;;;;;6.70;4.43;;;;;;;9.74;78.40;101807.97;5047363;28;20131;-50
2021/05/29 06:29:59;;;;;;;6.05;3.90;;;;;;;9.97;77.30;101812.69;5049791;28;20040;-53
2021/05/29 06:32:25;;;;;;;8.10;4.20;;;;;;;10.10;76.48;101812.03;5078447;28;20101;-52
2021/05/29 06:34:51;;;;;;;7.53;4.20;;;;;;;10.21;77.43;101813.06;5056701;28;20096;-55
2021/05/29 06:37:17;;;;;;;6.35;4.00;;;;;;;10.23;74.89;101811.38;5077079;28;20071;-52
2021/05/29 06:39:45;;;;;;;5.78;3.90;;;;;;;10.40;75.79;101816.00;5074032;28;20044;-50
2021/05/29 06:42:12;;;;;;;6.40;3.45;;;;;;;10.51;76.18;101819.66;5052709;28;20123;-51
2021/05/29 06:44:38;;;;;;;5.53;3.20;;;;;;;10.70;74.33;101817.28;5056136;28;20032;-51
2021/05/29 06:47:04;;;;;;;4.40;2.95;;;;;;;10.78;72.59;101807.78;5064292;28;20487;-54
2021/05/29 06:49:30;;;;;;;5.50;3.20;;;;;;;10.96;71.86;101814.13;5063070;28;20066;-52
2021/05/29 06:52:01;;;;;;;5.43;2.88;;;;;;;11.10;71.76;101817.78;5055104;28;20105;-53
2021/05/29 06:59:46;;;;;;;4.40;2.42;;;;;;;11.54;65.40;101813.88;5078262;28;20036;-53
2021/05/29 07:02:11;;;;;;;5.15;2.60;;;;;;;11.55;66.21;101816.50;5080758;28;20024;-55
2021/05/29 07:04:37;;;;;;;4.05;2.80;;;;;;;11.69;65.32;101811.41;5059088;28;20043;-52
2021/05/29 07:07:03;;;;;;;4.25;2.70;;;;;;;11.61;66.24;101806.97;5054958;28;20131;-51
2021/05/29 07:09:29;;;;;;;6.05;2.97;;;;;;;11.74;67.02;101808.81;5080934;28;20043;-52
2021/05/29 07:11:55;;;;;;;5.50;2.90;;;;;;;11.76;67.57;101813.19;5061995;28;20036;-51
2021/05/29 07:14:20;;;;;;;6.35;3.00;;;;;;;12.83;64.81;101806.03;5062551;28;20396;-55
2021/05/29 07:16:50;;;;;;;5.60;3.40;;;;;;;12.62;66.23;101805.97;5084128;28;20036;-52
2021/05/29 07:19:17;;;;;;;5.63;3.15;;;;;;;12.48;67.02;101808.53;5075604;28;20063;-51
2021/05/29 07:21:44;;;;;;;4.82;3.30;;;;;;;12.49;65.35;101813.78;5078811;28;20036;-52
2021/05/29 07:24:10;;;;;;;5.80;3.10;;;;;;;12.61;65.36;101810.31;5076191;28;20055;-51
2021/05/29 07:26:36;;;;;;;7.40;3.80;;;;;;;12.70;65.09;101812.13;5060166;28;20028;-53
2021/05/29 07:29:03;;;;;;;5.43;4.00;;;;;;;12.52;65.06;101819.03;5045729;28;20063;-53
2021/05/29 07:31:28;;;;;;;6.38;4.03;;;;;;;12.55;65.38;101811.16;5063772;28;20465;-52
2021/05/29 07:33:55;;;;;;;5.85;3.80;;;;;;;12.48;64.90;101814.63;5082689;28;20044;-52
2021/05/29 07:36:22;;;;;;;5.00;3.65;;;;;;;12.60;64.31;101819.94;5077432;28;20036;-53
2021/05/29 07:38:48;;;;;;;6.57;3.80;;;;;;;12.88;62.84;101814.81;5060447;28;20376;-51
2021/05/29 07:41:14;;;;;;;7.32;3.95;;;;;;;12.97;62.84;101818.34;5050457;28;20507;-51
2021/05/29 07:43:40;;;;;;;5.75;3.55;;;;;;;13.06;62.32;101819.25;5061604;28;20348;-52
2021/05/29 07:46:06;;;;;;;7.78;3.72;;;;;;;13.15;62.54;101825.41;5078728;28;20036;-52
2021/05/29 07:48:33;;;;;;;6.13;3.75;;;;;;;13.29;62.00;101821.97;5077914;28;20089;-51
2021/05/29 07:51:05;;;;;;;5.03;3.38;;;;;;;13.18;61.35;101823.69;5076506;28;20053;-51
2021/05/29 07:53:36;;;;;;;5.25;3.40;;;;;;;13.10;64.18;101828.91;5044125;28;20411;-51
2021/05/29 07:56:05;;;;;;;5.97;3.05;;;;;;;13.23;62.16;101832.44;5065409;28;20585;-51
2021/05/29 07:58:31;;;;;;;6.25;3.35;;;;;;;13.48;62.77;101824.66;5061656;28;20296;-55
2021/05/29 08:00:57;;;;;;;5.18;2.80;;;;;;;13.36;61.77;101822.91;5079219;28;20036;-52
2021/05/29 08:03:26;;;;;;;4.93;3.00;;;;;;;13.58;62.84;101829.06;5059512;28;20052;-50
2021/05/29 08:05:54;;;;;;;5.18;2.72;;;;;;;13.52;61.68;101826.41;5065280;28;20054;-50
2021/05/29 08:08:21;;;;;;;6.05;3.10;;;;;;;13.59;61.61;101825.53;5054469;28;20069;-53
2021/05/29 08:10:49;;;;;;;4.80;3.20;;;;;;;14.07;58.97;101829.97;5081495;28;20397;-52
2021/05/29 08:13:16;;;;;;;6.93;3.23;;;;;;;14.07;59.48;101824.69;5067901;28;20035;-51
2021/05/29 08:15:43;;;;;;;5.68;3.20;;;;;;;13.87;59.78;101828.19;5063976;28;20395;-52
2021/05/29 08:18:09;;;;;;;4.60;2.08;;;;;;;13.86;59.58;101829.09;5057902;28;20519;-50
2021/05/29 08:20:36;;;;;;;4.40;2.22;;;;;;;14.19;56.91;101829.94;5067244;28;20078;-51
2021/05/29 08:23:04;;;;;;;4.57;2.40;;;;;;;14.19;56.67;101829.94;5062359;28;20048;-51
2021/05/29 08:25:31;;;;;;;5.25;2.35;;;;;;;14.72;54.07;101837.75;5063342;28;20493;-51
2021/05/29 08:27:57;;;;;;;5.15;2.67;;;;;;;14.67;53.63;101831.63;5080540;28;20036;-51
2021/05/29 08:30:25;;;;;;;5.18;2.40;;;;;;;14.45;56.94;101832.53;5043361;28;20132;-51
2021/05/29 08:32:51;;;;;;;4.43;2.58;;;;;;;14.70;57.43;101836.88;5060025;28;20071;-53
2021/05/29 08:35:17;;;;;;;6.28;2.63;;;;;;;15.02;57.05;101825.34;5090121;28;20468;-50
2021/05/29 08:37:45;;;;;;;4.15;2.55;;;;;;;15.31;55.81;101828.72;5063157;28;20063;-53
2021/05/29 08:40:16;;;;;;;4.32;2.28;;;;;;;15.11;55.58;101830.56;5075034;28;20089;-51
2021/05/29 08:42:44;;;;;;;5.53;2.30;;;;;;;15.35;52.43;101834.81;5049988;28;20056;-50
2021/05/29 08:45:10;;;;;;;4.13;2.20;;;;;;;15.02;53.80;101841.13;5043503;28;20040;-53
2021/05/29 08:47:36;;;;;;;4.18;2.20;;;;;;;15.11;52.73;101846.38;5051619;28;20067;-50
2021/05/29 08:50:04;;;;;;;3.78;2.10;;;;;;;14.97;53.99;101844.66;5061673;28;20073;-52
2021/05/29 08:52:35;;;;;;;4.00;2.13;;;;;;;15.00;55.26;101849.06;5058835;28;20541;-54
2021/05/29 08:55:04;;;;;;;3.55;2.00;;;;;;;15.29;54.57;101843.63;5055672;28;20039;-54
2021/05/29 08:57:30;;;;;;;6.03;2.25;;;;;;;15.15;55.05;101840.22;5077193;28;20039;-50
2021/05/29 08:59:55;;;;;;;5.15;2.30;;;;;;;15.36;52.35;101840.97;5081808;28;20043;-53
2021/05/29 09:02:21;;;;;;;3.50;2.00;;;;;;;15.26;54.37;101845.44;5086358;28;20101;-50
2021/05/29 09:05:03;;;;;;;4.20;2.35;;;;;;;15.03;53.88;101853.44;5063245;28;20039;-52
2021/05/29 09:07:29;;;;;;;3.67;2.28;;;;;;;15.43;54.13;101845.31;5085813;28;20043;-51
2021/05/29 09:10:15;;;;;;;4.97;2.40;;;;;;;15.73;54.47;101841.59;5079516;28;20094;-52
2021/05/29 09:13:18;;;;;;;5.18;2.20;;;;;;;15.73;51.52;101851.25;5083632;28;20484;-51
2021/05/29 09:15:51;;;;;;;3.97;2.10;;;;;;;15.87;53.23;101849.44;5074167;28;20047;-51
2021/05/29 09:18:37;;;;;;;6.40;2.45;;;;;;;15.77;55.80;101850.34;5075435;28;20180;-53
2021/05/29 09:21:22;;;;;;;4.60;2.33;;;;;;;15.88;52.76;101845.03;5081690;28;21178;-56
2021/05/29 09:23:51;;;;;;;3.58;2.10;;;;;;;15.85;54.80;101850.34;5027091;28;20101;-50
2021/05/29 09:26:20;;;;;;;3.90;2.17;;;;;;;15.60;52.67;101846.09;5062183;28;20133;-52
2021/05/29 09:28:47;;;;;;;4.38;2.55;;;;;;;15.38;53.94;101853.25;5066818;28;20046;-51
2021/05/29 09:31:14;;;;;;;4.22;2.17;;;;;;;15.41;54.15;101849.72;5061448;28;20054;-49
2021/05/29 09:33:57;;;;;;;4.18;2.10;;;;;;;15.60;52.76;101851.38;5083183;28;20435;-51
2021/05/29 09:36:25;;;;;;;4.07;2.22;;;;;;;15.81;52.75;101866.19;5079386;28;20296;-54
2021/05/29 09:38:55;;;;;;;4.85;2.25;;;;;;;16.04;53.07;101856.34;5038031;28;20042;-52
2021/05/29 09:41:25;;;;;;;5.15;2.20;;;;;;;15.96;49.98;101864.31;5049249;28;20084;-50
2021/05/29 09:44:03;;;;;;;3.50;2.33;;;;;;;15.93;49.84;101859.06;5081319;28;20377;-51
2021/05/29 09:46:49;;;;;;;4.22;2.60;;;;;;;15.81;53.56;101852.09;5080024;28;20121;-51
2021/05/29 09:49:15;;;;;;;5.53;3.28;;;;;;;16.12;53.46;101851.88;5080635;28;20105;-50
2021/05/29 09:51:40;;;;;;;4.68;2.80;;;;;;;16.14;53.53;101858.00;5072756;28;20040;-49
2021/05/29 09:54:08;;;;;;;5.90;3.65;;;;;;;16.31;51.63;101856.09;5069004;28;20506;-49
2021/05/29 09:56:44;;;;;;;4.80;3.00;;;;;;;16.39;51.79;101857.78;5053585;28;20605;-53
2021/05/29 09:59:20;;;;;;;5.38;2.72;;;;;;;16.13;52.20;101861.50;5069836;28;20386;-54
2021/05/29 10:01:51;;;;;;;4.85;2.80;;;;;;;16.31;52.56;101866.66;5068839;28;20036;-50
2021/05/29 10:04:37;;;;;;;4.90;3.13;;;;;;;16.06;51.85;101859.81;5044180;28;20484;-52
2021/05/29 10:07:08;;;;;;;4.32;3.03;;;;;;;16.40;51.67;101859.53;5036853;28;20403;-49
2021/05/29 10:09:34;;;;;;;5.18;3.15;;;;;;;16.40;49.08;101862.16;5068114;28;20391;-52
2021/05/29 10:12:01;;;;;;;5.65;3.20;;;;;;;16.51;51.02;101862.94;5073130;28;20040;-50
2021/05/29 10:14:30;;;;;;;4.60;3.30;;;;;;;16.37;49.87;101865.72;5068781;28;20031;-51
2021/05/29 10:16:56;;;;;;;;;;;;;;;16.47;50.95;101864.72;5068921;28;20396;-52
2021/05/29 10:19:22;;;;;;;4.55;3.25;;;;;;;16.36;51.80;101858.66;5056775;28;19926;-51
2021/05/29 10:21:53;;;;;;;6.10;3.30;;;;;;;16.50;49.73;101866.44;5068541;28;20075;-51
2021/05/29 10:24:20;;;;;;;5.95;4.18;;;;;;;16.58;49.35;101867.25;5057502;28;20112;-50
2021/05/29 10:26:48;;;;;;;6.63;3.87;;;;;;;16.73;49.47;101858.28;5067903;28;20419;-50
2021/05/29 10:29:14;;;;;;;5.50;3.33;;;;;;;16.69;50.11;101862.72;5073912;28;20029;-51
2021/05/29 10:31:41;;;;;;;6.13;3.88;;;;;;;16.69;49.66;101861.84;5081297;28;20458;-53
2021/05/29 10:34:08;;;;;;;4.65;3.35;;;;;;;16.99;51.41;101865.06;5081535;28;20079;-50
2021/05/29 10:36:39;;;;;;;5.35;3.70;;;;;;;17.03;51.51;101856.22;5078745;28;20063;-53
2021/05/29 10:39:08;;;;;;;6.57;4.00;;;;;;;17.16;51.79;101862.22;5083200;28;20066;-50
2021/05/29 10:41:50;;;;;;;7.03;4.00;;;;;;;17.15;50.01;101855.16;5084550;28;20032;-51
2021/05/29 10:44:33;;;;;;;4.82;3.53;;;;;;;16.85;49.26;101849.38;5079621;28;20452;-51
2021/05/29 10:47:05;;;;;;;6.05;4.60;;;;;;;16.98;51.63;101850.09;5065096;28;20404;-53
2021/05/29 10:49:59;;;;;;;9.13;4.60;;;;;;;17.21;49.81;101852.47;5082021;28;20496;-52
2021/05/29 10:52:31;;;;;;;6.88;5.35;;;;;;;16.78;49.68;101856.47;5059001;28;20143;-50
2021/05/29 10:55:09;;;;;;;8.80;5.63;;;;;;;16.73;49.77;101852.16;5063687;28;20161;-50
2021/05/29 10:58:06;;;;;;;7.85;5.10;;;;;;;16.67;51.65;101853.97;5067835;28;20446;-51
2021/05/29 11:00:34;;;;;;;6.50;4.72;;;;;;;16.24;52.59;101854.41;5059251;28;20524;-52
2021/05/29 11:03:23;;;;;;;5.88;4.07;;;;;;;16.45;52.09;101845.41;5076021;28;20238;-51
2021/05/29 11:06:01;;;;;;;6.03;5.00;;;;;;;16.68;50.54;101849.53;5053008;28;20064;-52
2021/05/29 11:08:53;;;;;;;8.70;5.22;;;;;;;16.66;52.68;101839.00;5071161;28;20028;-52
2021/05/29 11:11:38;;;;;;;7.07;4.80;;;;;;;17.01;49.19;101845.66;5080668;28;20704;-52
2021/05/29 11:14:05;;;;;;;7.68;5.20;;;;;;;17.01;49.34;101845.66;5064111;28;20669;-52
2021/05/29 11:16:54;;;;;;;;;;;;;;;17.14;50.72;101845.47;5078539;28;20039;-52
2021/05/29 11:19:22;;;;;;;6.93;5.05;;;;;;;17.19;51.70;101841.03;5059076;28;20216;-50
2021/05/29 11:22:09;;;;;;;7.18;5.65;;;;;;;17.34;47.68;101840.81;5081724;28;20442;-49
2021/05/29 11:24:43;;;;;;;7.28;4.60;;;;;;;17.62;50.50;101845.69;5077677;28;20147;-50
2021/05/29 11:27:30;;;;;;;5.68;4.70;;;;;;;17.82;51.50;101840.09;5077565;28;20040;-54
2021/05/29 11:29:57;;;;;;;8.88;5.38;;;;;;;17.80;50.20;101835.72;5078793;28;20048;-50
2021/05/29 11:35:45;;;;;;;8.15;5.15;;;;;;;17.75;48.24;101840.19;5077270;28;20451;-52
2021/05/29 11:38:27;;;;;;;7.05;5.15;;;;;;;17.57;49.15;101829.03;5080725;28;20587;-51
2021/05/29 11:40:58;;;;;;;10.13;5.65;;;;;;;17.48;50.11;101834.44;5073895;28;20056;-54
2021/05/29 11:43:41;;;;;;;9.05;5.82;;;;;;;17.29;50.51;101826.81;5070756;28;20139;-52
2021/05/29 11:46:12;;;;;;;7.13;5.18;;;;;;;17.44;50.25;101835.41;5067279;28;20060;-52
2021/05/29 11:48:38;;;;;;;7.18;5.50;;;;;;;17.24;48.98;101827.72;5052796;28;20044;-52
2021/05/29 11:51:09;;;;;;;6.60;5.22;;;;;;;16.80;48.54;101825.63;5065416;28;20056;-51